createdAt,value
2022-11-28T00:00:45.473Z,0.30
2022-11-28T00:01:51.443Z,0.30
2022-11-28T00:02:46.653Z,0.30
2022-11-28T00:03:45.439Z,0.30
2022-11-28T00:04:45.434Z,0.30
2022-11-28T00:05:47.144Z,0.30
2022-11-28T00:06:45.540Z,0.40
2022-11-28T00:07:45.481Z,0.30
2022-11-28T00:08:45.603Z,0.30
2022-11-28T00:09:45.373Z,0.40
2022-11-28T00:10:45.385Z,0.20
2022-11-28T00:11:45.354Z,0.30
2022-11-28T00:12:45.345Z,0.30
2022-11-28T00:13:45.329Z,0.20
2022-11-28T00:14:45.339Z,0.30
2022-11-28T00:15:45.358Z,0.30
2022-11-28T00:16:45.318Z,0.20
2022-11-28T00:17:45.296Z,0.20
2022-11-28T00:18:45.397Z,0.30
2022-11-28T00:19:45.270Z,0.30
2022-11-28T00:20:45.265Z,0.20
2022-11-28T00:21:45.254Z,0.30
2022-11-28T00:22:45.236Z,0.30
2022-11-28T00:23:45.225Z,0.30
2022-11-28T00:24:45.325Z,0.30
2022-11-28T00:25:45.202Z,0.30
2022-11-28T00:26:45.203Z,0.30
2022-11-28T00:27:45.179Z,0.40
2022-11-28T00:28:45.172Z,0.30
2022-11-28T00:29:45.156Z,0.30
2022-11-28T00:30:45.143Z,0.30
2022-11-28T00:31:45.198Z,0.20
2022-11-28T00:32:45.136Z,0.20
2022-11-28T00:33:45.118Z,0.30
2022-11-28T00:34:45.259Z,0.20
2022-11-28T00:35:45.094Z,0.30
2022-11-28T00:36:45.082Z,0.30
2022-11-28T00:37:45.079Z,0.30
2022-11-28T00:38:45.060Z,0.20
2022-11-28T00:39:45.046Z,0.30
2022-11-28T00:40:45.039Z,0.30
2022-11-28T00:41:45.022Z,0.30
2022-11-28T00:42:45.027Z,0.30
2022-11-28T00:43:45.003Z,0.30
2022-11-28T00:44:45.047Z,0.20
2022-11-28T00:45:45.047Z,0.30
2022-11-28T00:46:44.988Z,0.30
2022-11-28T00:47:44.956Z,0.30
2022-11-28T00:48:44.947Z,0.30
2022-11-28T00:49:44.940Z,0.30
2022-11-28T00:50:45.056Z,0.30
2022-11-28T00:51:44.916Z,0.30
2022-11-28T00:52:44.914Z,0.30
2022-11-28T00:53:44.893Z,0.30
2022-11-28T00:54:44.894Z,0.30
2022-11-28T00:55:44.877Z,0.30
2022-11-28T00:56:44.871Z,0.20
2022-11-28T00:57:44.849Z,0.30
2022-11-28T00:58:44.845Z,0.30
2022-11-28T00:59:44.830Z,0.30
2022-11-28T01:00:44.876Z,0.30
2022-11-28T01:01:44.908Z,0.30
2022-11-28T01:02:44.859Z,0.20
2022-11-28T01:03:44.785Z,0.30
2022-11-28T01:04:44.863Z,0.30
2022-11-28T01:05:44.769Z,0.30
2022-11-28T01:06:44.880Z,0.40
2022-11-28T01:07:44.851Z,0.30
2022-11-28T01:08:44.730Z,0.20
2022-11-28T01:09:44.720Z,0.30
2022-11-28T01:10:44.708Z,0.30
2022-11-28T01:11:44.729Z,0.30
2022-11-28T01:12:44.698Z,0.30
2022-11-28T01:13:44.678Z,0.30
2022-11-28T01:14:44.784Z,0.30
2022-11-28T01:15:44.657Z,0.30
2022-11-28T01:16:44.713Z,0.40
2022-11-28T01:17:44.699Z,0.30
2022-11-28T01:18:44.619Z,0.30
2022-11-28T01:19:44.612Z,0.30
2022-11-28T01:20:44.594Z,0.20
2022-11-28T01:21:44.587Z,0.30
2022-11-28T01:22:44.699Z,0.30
2022-11-28T01:23:44.581Z,0.30
2022-11-28T01:24:44.799Z,0.30
2022-11-28T01:25:44.544Z,0.40
2022-11-28T01:26:44.532Z,0.20
2022-11-28T01:27:44.522Z,0.30
2022-11-28T01:28:44.512Z,0.30
2022-11-28T01:29:44.518Z,0.30
2022-11-28T01:30:44.500Z,0.30
2022-11-28T01:31:44.541Z,0.20
2022-11-28T01:32:44.468Z,0.30
2022-11-28T01:33:44.453Z,0.30
2022-11-28T01:34:44.714Z,0.40
2022-11-28T01:35:44.455Z,0.30
2022-11-28T01:36:44.435Z,0.30
2022-11-28T01:37:44.421Z,0.30
2022-11-28T01:38:44.532Z,0.20
2022-11-28T01:39:44.386Z,0.40
2022-11-28T01:40:44.384Z,0.30
2022-11-28T01:41:44.384Z,0.20
2022-11-28T01:42:44.359Z,0.30
2022-11-28T01:43:44.351Z,0.30
2022-11-28T01:44:44.551Z,0.30
2022-11-28T01:45:44.323Z,0.30
2022-11-28T01:46:44.422Z,0.20
2022-11-28T01:47:44.318Z,0.30
2022-11-28T01:48:44.297Z,0.30
2022-11-28T01:49:44.283Z,0.30
2022-11-28T01:50:44.270Z,0.30
2022-11-28T01:51:44.260Z,0.30
2022-11-28T01:52:44.355Z,0.20
2022-11-28T01:53:44.243Z,0.30
2022-11-28T01:54:44.347Z,0.30
2022-11-28T01:55:44.219Z,0.30
2022-11-28T01:56:44.205Z,0.30
2022-11-28T01:57:44.200Z,0.30
2022-11-28T01:58:44.201Z,0.30
2022-11-28T01:59:44.177Z,0.30
2022-11-28T02:00:44.221Z,0.30
2022-11-28T02:01:44.256Z,0.20
2022-11-28T02:02:44.141Z,0.30
2022-11-28T02:03:44.130Z,0.30
2022-11-28T02:04:44.373Z,0.30
2022-11-28T02:05:44.111Z,0.30
2022-11-28T02:06:44.109Z,0.30
2022-11-28T02:07:44.349Z,0.30
2022-11-28T02:08:44.071Z,0.40
2022-11-28T02:09:44.063Z,0.30
2022-11-28T02:10:44.168Z,0.30
2022-11-28T02:11:44.042Z,0.30
2022-11-28T02:12:44.034Z,0.40
2022-11-28T02:13:44.037Z,0.20
2022-11-28T02:14:44.239Z,0.30
2022-11-28T02:15:43.996Z,0.20
2022-11-28T02:16:44.092Z,0.20
2022-11-28T02:17:43.974Z,0.30
2022-11-28T02:18:48.920Z,0.30
2022-11-28T02:19:44.964Z,0.30
2022-11-28T02:20:43.942Z,0.30
2022-11-28T02:21:43.933Z,0.30
2022-11-28T02:22:43.920Z,0.40
2022-11-28T02:23:43.912Z,0.40
2022-11-28T02:24:44.168Z,0.30
2022-11-28T02:25:43.901Z,0.40
2022-11-28T02:26:43.992Z,0.30
2022-11-28T02:27:43.863Z,0.30
2022-11-28T02:28:43.853Z,0.40
2022-11-28T02:29:43.863Z,0.30
2022-11-28T02:30:43.832Z,0.30
2022-11-28T02:31:43.877Z,0.40
2022-11-28T02:32:43.811Z,0.40
2022-11-28T02:33:43.800Z,0.40
2022-11-28T02:34:46.919Z,0.30
2022-11-28T02:35:43.797Z,0.30
2022-11-28T02:36:43.763Z,0.30
2022-11-28T02:37:43.754Z,0.40
2022-11-28T02:38:43.757Z,0.40
2022-11-28T02:39:43.741Z,0.50
2022-11-28T02:40:43.725Z,0.40
2022-11-28T02:41:43.712Z,0.40
2022-11-28T02:42:43.819Z,0.40
2022-11-28T02:43:43.688Z,0.40
2022-11-28T02:44:44.204Z,0.40
2022-11-28T02:45:43.674Z,0.40
2022-11-28T02:46:43.745Z,0.40
2022-11-28T02:47:43.650Z,0.40
2022-11-28T02:48:43.633Z,0.40
2022-11-28T02:49:43.629Z,0.40
2022-11-28T02:50:43.621Z,0.40
2022-11-28T02:51:43.599Z,0.30
2022-11-28T02:52:43.586Z,0.40
2022-11-28T02:53:43.584Z,0.40
2022-11-28T02:54:43.973Z,0.40
2022-11-28T02:55:43.572Z,0.20
2022-11-28T02:56:43.543Z,0.30
2022-11-28T02:57:43.540Z,0.40
2022-11-28T02:58:43.675Z,0.30
2022-11-28T02:59:43.520Z,0.40
2022-11-28T03:00:43.873Z,0.40
2022-11-28T03:01:43.518Z,0.20
2022-11-28T03:02:43.484Z,0.40
2022-11-28T03:03:43.473Z,0.30
2022-11-28T03:04:43.834Z,0.30
2022-11-28T03:05:43.452Z,0.40
2022-11-28T03:06:43.463Z,0.30
2022-11-28T03:07:43.479Z,0.30
2022-11-28T03:08:43.413Z,0.30
2022-11-28T03:09:43.403Z,0.30
2022-11-28T03:10:43.393Z,0.40
2022-11-28T03:11:43.435Z,0.40
2022-11-28T03:12:43.380Z,0.30
2022-11-28T03:13:43.360Z,0.30
2022-11-28T03:14:43.738Z,0.30
2022-11-28T03:15:43.353Z,0.20
2022-11-28T03:16:43.422Z,0.40
2022-11-28T03:17:43.320Z,0.30
2022-11-28T03:18:43.304Z,0.30
2022-11-28T03:19:43.294Z,0.40
2022-11-28T03:20:43.287Z,0.20
2022-11-28T03:21:43.270Z,0.40
2022-11-28T03:22:43.276Z,0.40
2022-11-28T03:23:43.247Z,0.30
2022-11-28T03:24:43.455Z,0.30
2022-11-28T03:25:43.230Z,0.40
2022-11-28T03:26:43.214Z,0.30
2022-11-28T03:27:43.203Z,0.30
2022-11-28T03:28:43.865Z,0.40
2022-11-28T03:29:43.180Z,0.20
2022-11-28T03:30:43.288Z,0.40
2022-11-28T03:31:43.191Z,0.30
2022-11-28T03:32:43.160Z,0.30
2022-11-28T03:33:43.134Z,0.40
2022-11-28T03:34:43.369Z,0.40
2022-11-28T03:35:43.132Z,0.30
2022-11-28T03:36:43.106Z,0.40
2022-11-28T03:37:43.096Z,0.50
2022-11-28T03:38:43.079Z,0.40
2022-11-28T03:39:43.071Z,0.40
2022-11-28T03:40:43.069Z,3.60
2022-11-28T03:41:43.049Z,0.40
2022-11-28T03:42:43.043Z,1.20
2022-11-28T03:43:43.031Z,0.50
2022-11-28T03:44:43.403Z,0.50
2022-11-28T03:45:43.008Z,0.60
2022-11-28T03:46:43.175Z,0.30
2022-11-28T03:47:42.987Z,0.30
2022-11-28T03:48:42.975Z,0.40
2022-11-28T03:49:42.968Z,0.40
2022-11-28T03:50:42.948Z,0.40
2022-11-28T03:51:42.942Z,0.40
2022-11-28T03:52:42.939Z,0.40
2022-11-28T03:53:42.935Z,0.30
2022-11-28T03:54:43.277Z,0.40
2022-11-28T03:55:42.972Z,0.40
2022-11-28T03:56:42.889Z,0.40
2022-11-28T03:57:42.870Z,0.30
2022-11-28T03:58:42.870Z,0.30
2022-11-28T03:59:42.861Z,0.30
2022-11-28T04:00:42.902Z,0.40
2022-11-28T04:01:42.836Z,0.30
2022-11-28T04:02:42.981Z,0.50
2022-11-28T04:03:42.823Z,0.60
2022-11-28T04:04:43.161Z,0.50
2022-11-28T04:05:42.799Z,0.50
2022-11-28T04:06:42.778Z,0.40
2022-11-28T04:07:42.878Z,0.30
2022-11-28T04:08:42.754Z,0.40
2022-11-28T04:09:42.751Z,0.30
2022-11-28T04:10:42.728Z,0.30
2022-11-28T04:11:42.723Z,0.30
2022-11-28T04:12:42.713Z,0.40
2022-11-28T04:13:42.699Z,0.60
2022-11-28T04:14:42.931Z,0.50
2022-11-28T04:15:42.686Z,0.30
2022-11-28T04:16:42.721Z,0.60
2022-11-28T04:17:42.656Z,0.40
2022-11-28T04:18:42.783Z,0.30
2022-11-28T04:19:42.632Z,0.40
2022-11-28T04:20:42.622Z,0.30
2022-11-28T04:21:42.609Z,0.30
2022-11-28T04:22:42.602Z,0.40
2022-11-28T04:23:42.595Z,0.40
2022-11-28T04:24:42.928Z,0.40
2022-11-28T04:25:42.566Z,0.40
2022-11-28T04:26:42.554Z,0.40
2022-11-28T04:27:42.551Z,0.40
2022-11-28T04:28:42.533Z,0.30
2022-11-28T04:29:42.522Z,0.30
2022-11-28T04:30:42.568Z,0.30
2022-11-28T04:31:42.607Z,0.40
2022-11-28T04:32:42.497Z,0.30
2022-11-28T04:33:42.478Z,0.30
2022-11-28T04:34:42.883Z,0.40
2022-11-28T04:35:42.458Z,0.40
2022-11-28T04:36:42.447Z,0.40
2022-11-28T04:37:42.434Z,0.40
2022-11-28T04:38:42.441Z,0.30
2022-11-28T04:39:42.413Z,0.40
2022-11-28T04:40:42.397Z,0.20
2022-11-28T04:41:42.389Z,0.40
2022-11-28T04:42:42.383Z,0.30
2022-11-28T04:43:42.364Z,0.30
2022-11-28T04:44:42.718Z,0.40
2022-11-28T04:45:42.417Z,0.30
2022-11-28T04:46:42.334Z,0.30
2022-11-28T04:47:42.320Z,0.40
2022-11-28T04:48:42.326Z,0.30
2022-11-28T04:49:42.298Z,0.30
2022-11-28T04:50:42.409Z,0.40
2022-11-28T04:51:42.288Z,0.40
2022-11-28T04:52:42.278Z,0.30
2022-11-28T04:53:42.266Z,0.30
2022-11-28T04:54:42.568Z,0.40
2022-11-28T04:55:42.235Z,0.30
2022-11-28T04:56:42.236Z,0.40
2022-11-28T04:57:42.220Z,0.30
2022-11-28T04:58:42.200Z,0.40
2022-11-28T04:59:42.197Z,0.40
2022-11-28T05:00:42.215Z,0.30
2022-11-28T05:01:42.234Z,0.30
2022-11-28T05:02:42.169Z,0.30
2022-11-28T05:03:42.903Z,0.30
2022-11-28T05:04:42.489Z,0.20
2022-11-28T05:05:42.125Z,0.30
2022-11-28T05:06:42.260Z,0.30
2022-11-28T05:07:42.234Z,0.30
2022-11-28T05:08:42.098Z,0.30
2022-11-28T05:09:42.086Z,0.40
2022-11-28T05:10:42.075Z,0.30
2022-11-28T05:11:42.060Z,0.40
2022-11-28T05:12:49.596Z,0.40
2022-11-28T05:13:49.559Z,0.40
2022-11-28T05:14:49.543Z,0.30
2022-11-28T05:15:49.539Z,0.30
2022-11-28T05:16:49.590Z,0.30
2022-11-28T05:17:49.516Z,0.30
2022-11-28T05:18:49.513Z,0.30
2022-11-28T05:19:49.702Z,0.50
2022-11-28T05:20:49.484Z,0.50
2022-11-28T05:21:49.715Z,0.30
2022-11-28T05:22:42.065Z,0.40
2022-11-28T05:23:42.064Z,0.40
2022-11-28T05:24:41.921Z,0.50
2022-11-28T05:25:41.914Z,0.30
2022-11-28T05:26:41.901Z,0.30
2022-11-28T05:27:41.894Z,0.30
2022-11-28T05:28:41.883Z,0.30
2022-11-28T05:29:41.863Z,0.30
2022-11-28T05:30:41.851Z,0.40
2022-11-28T05:31:41.910Z,0.30
2022-11-28T05:32:41.843Z,0.30
2022-11-28T05:33:41.827Z,0.50
2022-11-28T05:34:42.144Z,0.50
2022-11-28T05:35:41.799Z,0.40
2022-11-28T05:36:41.788Z,0.30
2022-11-28T05:37:41.895Z,0.50
2022-11-28T05:38:41.783Z,0.40
2022-11-28T05:39:42.072Z,0.40
2022-11-28T05:40:41.743Z,0.50
2022-11-28T05:41:41.732Z,0.30
2022-11-28T05:42:41.744Z,0.30
2022-11-28T05:43:41.925Z,0.40
2022-11-28T05:44:41.700Z,0.50
2022-11-28T05:45:41.783Z,0.40
2022-11-28T05:46:41.678Z,0.50
2022-11-28T05:47:41.662Z,0.30
2022-11-28T05:48:41.675Z,0.30
2022-11-28T05:49:41.991Z,0.40
2022-11-28T05:50:41.640Z,0.40
2022-11-28T05:51:41.621Z,0.40
2022-11-28T05:52:41.619Z,0.50
2022-11-28T05:53:41.719Z,0.40
2022-11-28T05:54:41.602Z,0.70
2022-11-28T05:55:41.582Z,0.40
2022-11-28T05:56:42.613Z,0.40
2022-11-28T05:57:41.555Z,0.40
2022-11-28T05:58:41.549Z,0.40
2022-11-28T05:59:41.827Z,0.40
2022-11-28T06:00:41.541Z,0.40
2022-11-28T06:01:41.564Z,0.40
2022-11-28T06:02:41.515Z,0.50
2022-11-28T06:03:41.487Z,0.40
2022-11-28T06:04:41.673Z,0.40
2022-11-28T06:05:43.183Z,0.40
2022-11-28T06:06:41.466Z,0.40
2022-11-28T06:07:41.522Z,0.30
2022-11-28T06:08:41.436Z,0.40
2022-11-28T06:09:41.803Z,0.40
2022-11-28T06:10:41.416Z,0.30
2022-11-28T06:11:41.420Z,0.40
2022-11-28T06:12:41.391Z,0.40
2022-11-28T06:13:41.385Z,0.20
2022-11-28T06:14:41.369Z,0.30
2022-11-28T06:15:41.363Z,0.30
2022-11-28T06:16:41.419Z,0.30
2022-11-28T06:17:41.343Z,0.30
2022-11-28T06:18:41.326Z,0.30
2022-11-28T06:19:41.704Z,0.30
2022-11-28T06:20:41.318Z,0.40
2022-11-28T06:21:41.289Z,0.30
2022-11-28T06:22:41.289Z,0.30
2022-11-28T06:23:41.270Z,0.30
2022-11-28T06:24:41.260Z,0.40
2022-11-28T06:25:41.373Z,0.30
2022-11-28T06:26:41.261Z,0.30
2022-11-28T06:27:41.228Z,0.40
2022-11-28T06:28:41.213Z,0.30
2022-11-28T06:29:41.522Z,0.30
2022-11-28T06:30:41.227Z,0.40
2022-11-28T06:31:41.243Z,0.20
2022-11-28T06:32:41.181Z,0.30
2022-11-28T06:33:41.167Z,0.20
2022-11-28T06:34:41.155Z,0.30
2022-11-28T06:35:41.138Z,0.30
2022-11-28T06:36:41.141Z,0.30
2022-11-28T06:37:41.131Z,0.30
2022-11-28T06:38:41.109Z,0.30
2022-11-28T06:39:41.522Z,0.30
2022-11-28T06:40:41.090Z,0.30
2022-11-28T06:41:41.192Z,0.30
2022-11-28T06:42:41.062Z,0.30
2022-11-28T06:43:41.078Z,0.30
2022-11-28T06:44:41.044Z,0.30
2022-11-28T06:45:41.097Z,0.30
2022-11-28T06:46:41.027Z,0.30
2022-11-28T06:47:41.022Z,0.20
2022-11-28T06:48:40.995Z,0.30
2022-11-28T06:49:41.321Z,0.40
2022-11-28T06:50:40.981Z,0.30
2022-11-28T06:51:40.964Z,0.30
2022-11-28T06:52:40.970Z,0.70
2022-11-28T06:53:40.949Z,5.20
2022-11-28T06:54:40.936Z,8.50
2022-11-28T06:55:40.923Z,4.50
2022-11-28T06:56:40.908Z,0.40
2022-11-28T06:57:41.012Z,0.30
2022-11-28T06:58:40.908Z,3.90
2022-11-28T06:59:41.451Z,4.30
2022-11-28T07:00:40.995Z,1.50
2022-11-28T07:01:40.893Z,2.60
2022-11-28T07:02:40.921Z,0.90
2022-11-28T07:03:40.829Z,0.70
2022-11-28T07:04:40.824Z,0.50
2022-11-28T07:05:40.825Z,0.60
2022-11-28T07:06:40.801Z,0.50
2022-11-28T07:07:53.312Z,0.60
2022-11-28T07:08:41.788Z,0.70
2022-11-28T07:09:41.299Z,1.00
2022-11-28T07:10:40.755Z,0.70
2022-11-28T07:11:40.759Z,0.40
2022-11-28T07:12:40.730Z,0.30
2022-11-28T07:13:40.842Z,0.40
2022-11-28T07:14:40.725Z,0.30
2022-11-28T07:15:40.702Z,0.30
2022-11-28T07:16:40.754Z,0.40
2022-11-28T07:17:40.711Z,0.40
2022-11-28T07:18:40.671Z,0.50
2022-11-28T07:19:40.882Z,0.30
2022-11-28T07:20:40.648Z,0.30
2022-11-28T07:21:40.639Z,0.30
2022-11-28T07:22:40.625Z,0.30
2022-11-28T07:23:40.722Z,0.40
2022-11-28T07:24:40.602Z,0.40
2022-11-28T07:25:40.590Z,0.40
2022-11-28T07:26:40.577Z,0.30
2022-11-28T07:27:40.573Z,0.60
2022-11-28T07:28:40.564Z,0.40
2022-11-28T07:29:40.919Z,0.40
2022-11-28T07:30:40.534Z,0.40
2022-11-28T07:31:40.543Z,0.30
2022-11-28T07:32:40.523Z,0.40
2022-11-28T07:33:40.504Z,2.00
2022-11-28T07:34:40.503Z,0.40
2022-11-28T07:35:40.480Z,1.50
2022-11-28T07:36:40.472Z,0.90
2022-11-28T07:37:40.459Z,0.50
2022-11-28T07:38:40.469Z,0.40
2022-11-28T07:39:40.707Z,0.40
2022-11-28T07:40:40.425Z,0.30
2022-11-28T07:41:40.415Z,0.30
2022-11-28T07:42:40.415Z,0.30
2022-11-28T07:43:40.394Z,0.40
2022-11-28T07:44:40.393Z,0.60
2022-11-28T07:45:59.588Z,1.10
2022-11-28T07:46:41.522Z,0.70
2022-11-28T07:47:40.359Z,0.60
2022-11-28T07:48:40.338Z,1.50
2022-11-28T07:49:40.778Z,0.60
2022-11-28T07:50:40.313Z,0.40
2022-11-28T07:51:40.320Z,0.40
2022-11-28T07:52:40.295Z,0.40
2022-11-28T07:53:40.283Z,0.50
2022-11-28T07:54:40.267Z,0.50
2022-11-28T07:55:40.472Z,0.60
2022-11-28T07:57:10.732Z,0.50
2022-11-28T07:57:41.240Z,0.40
2022-11-28T07:58:40.232Z,0.50
2022-11-28T07:59:40.451Z,0.50
2022-11-28T08:00:40.210Z,0.40
2022-11-28T08:01:40.256Z,0.40
2022-11-28T08:02:40.193Z,0.60
2022-11-28T08:03:40.179Z,0.40
2022-11-28T08:04:45.897Z,0.50
2022-11-28T08:05:41.154Z,0.40
2022-11-28T08:06:40.146Z,0.30
2022-11-28T08:07:40.182Z,0.40
2022-11-28T08:08:40.131Z,0.40
2022-11-28T08:09:40.508Z,0.40
2022-11-28T08:10:40.099Z,0.50
2022-11-28T08:11:40.081Z,0.70
2022-11-28T08:12:40.077Z,0.40
2022-11-28T08:13:40.067Z,0.30
2022-11-28T08:14:40.408Z,0.30
2022-11-28T08:15:40.054Z,0.40
2022-11-28T08:16:40.156Z,0.40
2022-11-28T08:17:40.044Z,0.30
2022-11-28T08:18:40.011Z,0.50
2022-11-28T08:19:40.009Z,0.80
2022-11-28T08:20:40.090Z,0.80
2022-11-28T08:21:39.990Z,0.90
2022-11-28T08:22:39.970Z,0.60
2022-11-28T08:23:39.950Z,0.40
2022-11-28T08:24:40.197Z,0.40
2022-11-28T08:25:39.929Z,0.40
2022-11-28T08:26:39.940Z,0.40
2022-11-28T08:27:39.911Z,0.40
2022-11-28T08:28:39.897Z,0.40
2022-11-28T08:29:39.931Z,1.10
2022-11-28T08:30:39.980Z,0.70
2022-11-28T08:31:39.868Z,2.20
2022-11-28T08:32:39.862Z,6.30
2022-11-28T08:33:39.886Z,4.90
2022-11-28T08:34:39.830Z,4.70
2022-11-28T08:35:39.822Z,2.90
2022-11-28T08:36:39.811Z,2.50
2022-11-28T08:37:39.801Z,2.60
2022-11-28T08:38:39.804Z,3.20
2022-11-28T08:39:39.805Z,3.10
2022-11-28T08:40:39.767Z,2.90
2022-11-28T08:41:39.749Z,2.70
2022-11-28T08:42:39.742Z,2.30
2022-11-28T08:43:39.943Z,1.70
2022-11-28T08:44:39.732Z,1.20
2022-11-28T08:45:39.785Z,0.50
2022-11-28T08:46:39.702Z,0.60
2022-11-28T08:47:39.694Z,1.10
2022-11-28T08:48:39.677Z,0.50
2022-11-28T08:49:39.706Z,0.90
2022-11-28T08:50:43.692Z,1.00
2022-11-28T08:51:40.649Z,1.30
2022-11-28T08:52:39.636Z,1.70
2022-11-28T08:53:39.621Z,1.70
2022-11-28T08:54:39.610Z,1.70
2022-11-28T08:55:41.958Z,1.20
2022-11-28T08:56:39.589Z,0.90
2022-11-28T08:57:39.580Z,0.60
2022-11-28T08:58:39.565Z,0.60
2022-11-28T08:59:39.554Z,0.60
2022-11-28T09:00:39.556Z,0.60
2022-11-28T09:01:39.703Z,0.50
2022-11-28T09:02:39.519Z,0.50
2022-11-28T09:03:39.553Z,0.70
2022-11-28T09:04:39.500Z,0.60
2022-11-28T09:05:39.532Z,0.50
2022-11-28T09:06:39.493Z,0.50
2022-11-28T09:07:39.532Z,0.60
2022-11-28T09:08:39.454Z,0.70
2022-11-28T09:09:39.444Z,0.60
2022-11-28T09:10:39.456Z,0.70
2022-11-28T09:11:39.433Z,0.70
2022-11-28T09:12:39.422Z,0.70
2022-11-28T09:13:39.402Z,0.90
2022-11-28T09:14:39.388Z,0.70
2022-11-28T09:15:39.383Z,0.80
2022-11-28T09:16:39.447Z,0.70
2022-11-28T09:17:39.353Z,0.80
2022-11-28T09:18:39.357Z,0.70
2022-11-28T09:19:39.405Z,0.60
2022-11-28T09:20:39.327Z,0.70
2022-11-28T09:21:39.346Z,0.60
2022-11-28T09:22:39.303Z,0.70
2022-11-28T09:23:39.293Z,0.60
2022-11-28T09:24:39.293Z,0.60
2022-11-28T09:25:39.282Z,0.70
2022-11-28T09:26:39.260Z,0.60
2022-11-28T09:27:39.256Z,0.70
2022-11-28T09:28:39.244Z,0.60
2022-11-28T09:29:39.237Z,0.60
2022-11-28T09:30:39.282Z,0.60
2022-11-28T09:31:41.998Z,0.60
2022-11-28T09:32:40.189Z,0.70
2022-11-28T09:33:39.188Z,0.70
2022-11-28T09:34:39.171Z,0.70
2022-11-28T09:35:39.160Z,0.60
2022-11-28T09:36:39.163Z,0.70
2022-11-28T09:37:39.158Z,0.90
2022-11-28T09:38:39.129Z,0.90
2022-11-28T09:39:50.636Z,1.10
2022-11-28T09:40:40.117Z,0.70
2022-11-28T09:41:39.096Z,0.70
2022-11-28T09:42:39.080Z,0.70
2022-11-28T09:43:39.091Z,0.60
2022-11-28T09:44:39.062Z,0.70
2022-11-28T09:45:39.204Z,0.90
2022-11-28T09:46:39.084Z,1.30
2022-11-28T09:47:39.030Z,2.00
2022-11-28T09:48:39.015Z,1.70
2022-11-28T09:49:41.095Z,1.60
2022-11-28T09:50:39.004Z,1.40
2022-11-28T09:51:38.987Z,1.50
2022-11-28T09:52:39.068Z,1.40
2022-11-28T09:53:38.990Z,1.50
2022-11-28T09:54:38.946Z,1.20
2022-11-28T09:55:38.951Z,1.00
2022-11-28T09:56:38.928Z,0.80
2022-11-28T09:57:38.936Z,0.70
2022-11-28T09:58:38.936Z,0.60
2022-11-28T09:59:38.905Z,0.60
2022-11-28T10:00:38.888Z,0.50
2022-11-28T10:01:38.881Z,0.60
2022-11-28T10:02:38.871Z,0.60
2022-11-28T10:03:38.897Z,0.40
2022-11-28T10:04:38.991Z,0.40
2022-11-28T10:05:38.839Z,0.50
2022-11-28T10:06:38.820Z,0.50
2022-11-28T10:07:38.878Z,0.50
2022-11-28T10:08:38.797Z,0.60
2022-11-28T10:09:38.814Z,0.50
2022-11-28T10:10:38.778Z,0.50
2022-11-28T10:11:38.764Z,0.60
2022-11-28T10:12:38.759Z,0.50
2022-11-28T10:14:06.157Z,0.60
2022-11-28T10:14:39.733Z,0.60
2022-11-28T10:15:38.718Z,0.50
2022-11-28T10:16:38.801Z,0.50
2022-11-28T10:17:38.710Z,0.50
2022-11-28T10:18:38.689Z,0.50
2022-11-28T10:19:53.897Z,0.60
2022-11-28T10:20:39.669Z,0.60
2022-11-28T10:21:38.664Z,0.60
2022-11-28T10:22:38.647Z,0.50
2022-11-28T10:23:38.634Z,0.50
2022-11-28T10:24:38.623Z,0.60
2022-11-28T10:25:38.646Z,0.50
2022-11-28T10:26:38.596Z,0.40
2022-11-28T10:27:38.591Z,0.60
2022-11-28T10:28:38.573Z,0.60
2022-11-28T10:29:38.579Z,0.60
2022-11-28T10:30:38.607Z,0.60
2022-11-28T10:31:38.545Z,0.50
2022-11-28T10:32:38.533Z,0.60
2022-11-28T10:33:38.530Z,0.70
2022-11-28T10:34:38.514Z,0.50
2022-11-28T10:35:38.516Z,0.50
2022-11-28T10:36:38.524Z,0.60
2022-11-28T10:37:38.480Z,0.70
2022-11-28T10:38:38.469Z,0.70
2022-11-28T10:39:38.456Z,0.60
2022-11-28T10:40:38.556Z,0.70
2022-11-28T10:41:38.516Z,0.70
2022-11-28T10:42:38.426Z,0.80
2022-11-28T10:43:38.411Z,1.40
2022-11-28T10:44:38.401Z,1.40
2022-11-28T10:45:38.601Z,1.00
2022-11-28T10:46:38.409Z,0.80
2022-11-28T10:47:38.379Z,1.20
2022-11-28T10:48:40.343Z,1.00
2022-11-28T10:49:38.345Z,1.20
2022-11-28T10:50:38.338Z,1.40
2022-11-28T10:51:38.335Z,1.10
2022-11-28T10:52:38.310Z,0.60
2022-11-28T10:53:38.310Z,0.60
2022-11-28T10:54:38.293Z,0.50
2022-11-28T10:55:38.281Z,0.40
2022-11-28T10:56:38.273Z,0.60
2022-11-28T10:57:38.299Z,0.60
2022-11-28T10:58:38.249Z,0.40
2022-11-28T10:59:38.239Z,0.50
2022-11-28T11:00:38.231Z,0.60
2022-11-28T11:01:38.330Z,0.50
2022-11-28T11:02:38.212Z,0.50
2022-11-28T11:03:38.198Z,0.50
2022-11-28T11:04:38.263Z,0.50
2022-11-28T11:05:38.173Z,0.50
2022-11-28T11:06:47.648Z,0.70
2022-11-28T11:07:39.255Z,0.40
2022-11-28T11:08:38.143Z,0.60
2022-11-28T11:09:38.121Z,0.50
2022-11-28T11:10:38.119Z,0.50
2022-11-28T11:11:38.129Z,0.60
2022-11-28T11:12:38.091Z,0.50
2022-11-28T11:13:38.110Z,0.50
2022-11-28T11:14:38.072Z,0.60
2022-11-28T11:15:38.108Z,0.50
2022-11-28T11:16:38.112Z,0.50
2022-11-28T11:17:38.054Z,0.60
2022-11-28T11:18:38.025Z,0.50
2022-11-28T11:19:38.012Z,0.40
2022-11-28T11:20:38.013Z,0.40
2022-11-28T11:21:37.996Z,0.50
2022-11-28T11:22:37.995Z,0.60
2022-11-28T11:23:38.589Z,0.50
2022-11-28T11:24:37.961Z,0.50
2022-11-28T11:25:37.949Z,0.60
2022-11-28T11:26:37.937Z,0.50
2022-11-28T11:27:37.938Z,0.50
2022-11-28T11:28:37.923Z,0.70
2022-11-28T11:29:37.990Z,0.50
2022-11-28T11:30:37.964Z,0.50
2022-11-28T11:31:37.887Z,7.00
2022-11-28T11:32:37.870Z,1.70
2022-11-28T11:33:37.876Z,2.00
2022-11-28T11:34:37.857Z,0.60
2022-11-28T11:35:37.844Z,1.20
2022-11-28T11:36:37.833Z,0.50
2022-11-28T11:37:37.821Z,1.20
2022-11-28T11:38:38.359Z,0.50
2022-11-28T11:39:37.808Z,0.60
2022-11-28T11:40:37.785Z,0.50
2022-11-28T11:41:37.828Z,0.60
2022-11-28T11:42:37.781Z,0.50
2022-11-28T11:43:37.750Z,0.40
2022-11-28T11:44:37.748Z,0.50
2022-11-28T11:45:37.764Z,0.50
2022-11-28T11:46:37.747Z,0.50
2022-11-28T11:47:37.765Z,0.60
2022-11-28T11:48:37.710Z,0.50
2022-11-28T11:49:37.682Z,0.50
2022-11-28T11:50:37.673Z,0.50
2022-11-28T11:51:39.550Z,0.60
2022-11-28T11:52:37.657Z,0.50
2022-11-28T11:53:37.647Z,0.70
2022-11-28T11:54:37.645Z,0.60
2022-11-28T11:55:37.623Z,0.50
2022-11-28T11:56:37.613Z,0.60
2022-11-28T11:57:37.619Z,0.60
2022-11-28T11:58:37.595Z,0.60
2022-11-28T11:59:37.598Z,0.60
2022-11-28T12:00:37.565Z,0.60
2022-11-28T12:01:37.589Z,0.60
2022-11-28T12:02:37.660Z,0.50
2022-11-28T12:03:37.780Z,0.50
2022-11-28T12:04:46.251Z,0.50
2022-11-28T12:06:06.088Z,0.50
2022-11-28T12:06:38.516Z,0.50
2022-11-28T12:07:37.605Z,0.50
2022-11-28T12:08:37.507Z,0.50
2022-11-28T12:09:37.464Z,0.60
2022-11-28T12:10:37.455Z,0.50
2022-11-28T12:11:41.217Z,0.60
2022-11-28T12:12:38.440Z,0.60
2022-11-28T12:13:37.428Z,0.50
2022-11-28T12:14:37.411Z,0.60
2022-11-28T12:15:37.505Z,0.70
2022-11-28T12:16:37.508Z,0.50
2022-11-28T12:17:58.311Z,0.60
2022-11-28T12:18:38.371Z,0.60
2022-11-28T12:19:37.355Z,0.50
2022-11-28T12:20:37.359Z,0.70
2022-11-28T12:21:37.349Z,0.60
2022-11-28T12:22:37.332Z,0.50
2022-11-28T12:23:37.315Z,0.50
2022-11-28T12:24:37.305Z,0.60
2022-11-28T12:25:37.294Z,0.60
2022-11-28T12:26:37.301Z,0.60
2022-11-28T12:27:37.275Z,0.60
2022-11-28T12:28:37.264Z,0.50
2022-11-28T12:29:37.251Z,0.60
2022-11-28T12:30:39.220Z,0.40
2022-11-28T12:31:37.376Z,0.50
2022-11-28T12:32:37.236Z,0.60
2022-11-28T12:33:37.231Z,0.60
2022-11-28T12:34:37.193Z,0.70
2022-11-28T12:35:37.185Z,0.50
2022-11-28T12:36:37.179Z,0.60
2022-11-28T12:38:02.601Z,0.60
2022-11-28T12:38:38.168Z,0.60
2022-11-28T12:39:37.154Z,1.00
2022-11-28T12:40:37.140Z,0.50
2022-11-28T12:41:37.119Z,0.90
2022-11-28T12:42:37.113Z,1.40
2022-11-28T12:43:37.109Z,0.50
2022-11-28T12:44:37.085Z,0.90
2022-11-28T12:45:37.081Z,0.80
2022-11-28T12:46:37.118Z,4.20
2022-11-28T12:47:37.053Z,2.60
2022-11-28T12:48:37.047Z,1.00
2022-11-28T12:49:37.085Z,0.50
2022-11-28T12:50:37.021Z,0.70
2022-11-28T12:51:37.007Z,0.60
2022-11-28T12:52:37.005Z,0.60
2022-11-28T12:53:36.988Z,0.60
2022-11-28T12:54:36.981Z,0.70
2022-11-28T12:55:36.979Z,0.60
2022-11-28T12:56:36.955Z,0.50
2022-11-28T12:57:36.950Z,0.60
2022-11-28T12:58:36.933Z,0.60
2022-11-28T12:59:36.940Z,0.70
2022-11-28T13:00:36.921Z,0.50
2022-11-28T13:01:36.918Z,0.60
2022-11-28T13:02:37.038Z,0.60
2022-11-28T13:03:36.879Z,0.60
2022-11-28T13:04:36.866Z,0.70
2022-11-28T13:05:36.905Z,0.70
2022-11-28T13:06:36.862Z,0.70
2022-11-28T13:07:36.868Z,0.60
2022-11-28T13:08:36.827Z,0.50
2022-11-28T13:09:36.816Z,0.60
2022-11-28T13:10:36.803Z,0.80
2022-11-28T13:11:36.804Z,0.70
2022-11-28T13:12:36.779Z,0.60
2022-11-28T13:13:36.768Z,0.80
2022-11-28T13:14:36.756Z,0.50
2022-11-28T13:15:36.797Z,0.60
2022-11-28T13:16:36.823Z,0.60
2022-11-28T13:17:36.742Z,0.60
2022-11-28T13:18:36.710Z,0.80